sensor_id;sensor_type;location;lat;lon;timestamp;P1;durP1;ratioP1;P2;durP2;ratioP2
10795;SDS011;5450;42.994;23.372;2023-07-31T00:00:13;4.10;;;3.90;;
10795;SDS011;5450;42.994;23.372;2023-07-31T00:02:40;3.90;;;3.70;;
10795;SDS011;5450;42.994;23.372;2023-07-31T00:05:08;3.77;;;3.50;;
10795;SDS011;5450;42.994;23.372;2023-07-31T00:07:35;4.10;;;3.90;;
10795;SDS011;5450;42.994;23.372;2023-07-31T00:10:02;4.00;;;3.80;;
10795;SDS011;5450;42.994;23.372;2023-07-31T00:12:29;4.27;;;3.87;;
10795;SDS011;5450;42.994;23.372;2023-07-31T00:15:00;4.27;;;3.97;;
10795;SDS011;5450;42.994;23.372;2023-07-31T00:20:21;4.90;;;4.17;;
10795;SDS011;5450;42.994;23.372;2023-07-31T00:22:48;3.87;;;3.63;;
10795;SDS011;5450;42.994;23.372;2023-07-31T00:25:15;4.33;;;4.03;;
10795;SDS011;5450;42.994;23.372;2023-07-31T00:27:43;4.40;;;4.10;;
10795;SDS011;5450;42.994;23.372;2023-07-31T00:30:15;4.10;;;3.90;;
10795;SDS011;5450;42.994;23.372;2023-07-31T00:32:42;4.07;;;3.87;;
10795;SDS011;5450;42.994;23.372;2023-07-31T00:35:14;4.23;;;3.93;;
10795;SDS011;5450;42.994;23.372;2023-07-31T00:40:35;4.20;;;3.90;;
10795;SDS011;5450;42.994;23.372;2023-07-31T00:43:03;3.83;;;3.63;;
10795;SDS011;5450;42.994;23.372;2023-07-31T00:45:30;4.10;;;3.80;;
10795;SDS011;5450;42.994;23.372;2023-07-31T00:47:58;3.97;;;3.77;;
10795;SDS011;5450;42.994;23.372;2023-07-31T00:50:27;4.00;;;3.70;;
10795;SDS011;5450;42.994;23.372;2023-07-31T00:52:55;3.80;;;3.60;;
10795;SDS011;5450;42.994;23.372;2023-07-31T00:55:22;4.30;;;4.00;;
10795;SDS011;5450;42.994;23.372;2023-07-31T00:57:49;4.07;;;3.87;;
10795;SDS011;5450;42.994;23.372;2023-07-31T01:00:17;4.07;;;3.77;;
10795;SDS011;5450;42.994;23.372;2023-07-31T01:06:08;4.23;;;3.93;;
10795;SDS011;5450;42.994;23.372;2023-07-31T01:08:42;4.13;;;3.93;;
10795;SDS011;5450;42.994;23.372;2023-07-31T01:14:52;4.07;;;3.87;;
10795;SDS011;5450;42.994;23.372;2023-07-31T01:17:33;4.20;;;3.90;;
10795;SDS011;5450;42.994;23.372;2023-07-31T01:20:05;4.30;;;3.90;;
10795;SDS011;5450;42.994;23.372;2023-07-31T01:25:48;4.90;;;4.50;;
10795;SDS011;5450;42.994;23.372;2023-07-31T01:28:31;4.00;;;3.80;;
10795;SDS011;5450;42.994;23.372;2023-07-31T01:31:05;3.70;;;3.50;;
10795;SDS011;5450;42.994;23.372;2023-07-31T01:33:39;4.10;;;3.90;;
10795;SDS011;5450;42.994;23.372;2023-07-31T01:36:07;4.27;;;4.00;;
10795;SDS011;5450;42.994;23.372;2023-07-31T01:38:34;4.30;;;4.00;;
10795;SDS011;5450;42.994;23.372;2023-07-31T01:41:03;3.70;;;3.50;;
10795;SDS011;5450;42.994;23.372;2023-07-31T01:43:30;4.00;;;3.80;;
10795;SDS011;5450;42.994;23.372;2023-07-31T01:45:57;3.93;;;3.73;;
10795;SDS011;5450;42.994;23.372;2023-07-31T01:48:24;3.97;;;3.77;;
10795;SDS011;5450;42.994;23.372;2023-07-31T01:50:54;4.17;;;3.80;;
10795;SDS011;5450;42.994;23.372;2023-07-31T01:53:21;4.10;;;3.80;;
10795;SDS011;5450;42.994;23.372;2023-07-31T01:55:48;3.97;;;3.67;;
10795;SDS011;5450;42.994;23.372;2023-07-31T01:58:17;4.33;;;4.10;;
10795;SDS011;5450;42.994;23.372;2023-07-31T02:00:44;4.77;;;4.20;;
10795;SDS011;5450;42.994;23.372;2023-07-31T02:03:11;4.40;;;4.10;;
10795;SDS011;5450;42.994;23.372;2023-07-31T02:05:43;4.80;;;4.50;;
10795;SDS011;5450;42.994;23.372;2023-07-31T02:08:11;4.00;;;3.80;;
10795;SDS011;5450;42.994;23.372;2023-07-31T02:10:37;4.53;;;4.33;;
10795;SDS011;5450;42.994;23.372;2023-07-31T02:13:04;3.93;;;3.73;;
10795;SDS011;5450;42.994;23.372;2023-07-31T02:15:36;4.07;;;3.83;;
10795;SDS011;5450;42.994;23.372;2023-07-31T02:18:04;4.27;;;3.87;;
10795;SDS011;5450;42.994;23.372;2023-07-31T02:20:33;4.27;;;4.00;;
10795;SDS011;5450;42.994;23.372;2023-07-31T02:23:00;4.20;;;4.00;;
10795;SDS011;5450;42.994;23.372;2023-07-31T02:25:28;4.40;;;4.10;;
10795;SDS011;5450;42.994;23.372;2023-07-31T02:27:58;4.50;;;4.20;;
10795;SDS011;5450;42.994;23.372;2023-07-31T02:30:26;4.03;;;3.83;;
10795;SDS011;5450;42.994;23.372;2023-07-31T02:32:56;4.00;;;3.80;;
10795;SDS011;5450;42.994;23.372;2023-07-31T02:35:24;4.63;;;4.33;;
10795;SDS011;5450;42.994;23.372;2023-07-31T02:37:52;4.50;;;4.13;;
10795;SDS011;5450;42.994;23.372;2023-07-31T02:40:19;4.60;;;4.40;;
10795;SDS011;5450;42.994;23.372;2023-07-31T02:42:46;5.40;;;5.00;;
10795;SDS011;5450;42.994;23.372;2023-07-31T02:45:13;4.47;;;4.23;;
10795;SDS011;5450;42.994;23.372;2023-07-31T02:47:40;4.70;;;4.40;;
10795;SDS011;5450;42.994;23.372;2023-07-31T02:50:09;4.40;;;4.20;;
10795;SDS011;5450;42.994;23.372;2023-07-31T02:52:36;4.63;;;4.30;;
10795;SDS011;5450;42.994;23.372;2023-07-31T02:55:06;4.23;;;4.00;;
10795;SDS011;5450;42.994;23.372;2023-07-31T02:57:33;4.50;;;4.20;;
10795;SDS011;5450;42.994;23.372;2023-07-31T03:00:00;4.33;;;4.03;;
10795;SDS011;5450;42.994;23.372;2023-07-31T03:02:32;3.87;;;3.67;;
10795;SDS011;5450;42.994;23.372;2023-07-31T03:04:59;3.87;;;3.67;;
10795;SDS011;5450;42.994;23.372;2023-07-31T03:07:27;4.63;;;4.33;;
10795;SDS011;5450;42.994;23.372;2023-07-31T03:09:55;4.03;;;3.83;;
10795;SDS011;5450;42.994;23.372;2023-07-31T03:12:22;4.30;;;4.07;;
10795;SDS011;5450;42.994;23.372;2023-07-31T03:14:50;5.00;;;4.70;;
10795;SDS011;5450;42.994;23.372;2023-07-31T03:17:18;5.07;;;4.40;;
10795;SDS011;5450;42.994;23.372;2023-07-31T03:19:45;4.20;;;4.00;;
10795;SDS011;5450;42.994;23.372;2023-07-31T03:22:15;4.27;;;4.07;;
10795;SDS011;5450;42.994;23.372;2023-07-31T03:24:45;4.20;;;3.90;;
10795;SDS011;5450;42.994;23.372;2023-07-31T03:27:12;4.87;;;4.57;;
10795;SDS011;5450;42.994;23.372;2023-07-31T03:29:39;4.30;;;4.10;;
10795;SDS011;5450;42.994;23.372;2023-07-31T03:32:06;4.97;;;4.03;;
10795;SDS011;5450;42.994;23.372;2023-07-31T03:34:33;4.87;;;4.57;;
10795;SDS011;5450;42.994;23.372;2023-07-31T03:37:00;4.20;;;4.00;;
10795;SDS011;5450;42.994;23.372;2023-07-31T03:39:27;4.50;;;4.20;;
10795;SDS011;5450;42.994;23.372;2023-07-31T03:41:55;4.20;;;4.00;;
10795;SDS011;5450;42.994;23.372;2023-07-31T03:44:22;4.73;;;4.50;;
10795;SDS011;5450;42.994;23.372;2023-07-31T03:46:50;4.53;;;4.30;;
10795;SDS011;5450;42.994;23.372;2023-07-31T03:49:17;4.57;;;4.17;;
10795;SDS011;5450;42.994;23.372;2023-07-31T03:51:44;4.47;;;4.10;;
10795;SDS011;5450;42.994;23.372;2023-07-31T03:54:11;5.00;;;4.70;;
10795;SDS011;5450;42.994;23.372;2023-07-31T03:56:38;4.87;;;4.57;;
10795;SDS011;5450;42.994;23.372;2023-07-31T04:02:00;5.17;;;4.60;;
10795;SDS011;5450;42.994;23.372;2023-07-31T04:04:27;4.30;;;3.97;;
10795;SDS011;5450;42.994;23.372;2023-07-31T04:09:45;4.73;;;4.43;;
10795;SDS011;5450;42.994;23.372;2023-07-31T04:12:12;4.77;;;4.47;;
10795;SDS011;5450;42.994;23.372;2023-07-31T04:14:53;4.73;;;4.43;;
10795;SDS011;5450;42.994;23.372;2023-07-31T04:17:20;4.90;;;4.60;;
10795;SDS011;5450;42.994;23.372;2023-07-31T04:19:50;5.30;;;5.00;;
10795;SDS011;5450;42.994;23.372;2023-07-31T04:22:17;4.90;;;4.60;;
10795;SDS011;5450;42.994;23.372;2023-07-31T04:24:46;5.33;;;5.03;;
10795;SDS011;5450;42.994;23.372;2023-07-31T04:27:13;5.77;;;5.37;;
10795;SDS011;5450;42.994;23.372;2023-07-31T04:29:45;5.50;;;5.20;;
10795;SDS011;5450;42.994;23.372;2023-07-31T04:32:12;5.00;;;4.70;;
10795;SDS011;5450;42.994;23.372;2023-07-31T04:34:41;5.03;;;4.80;;
10795;SDS011;5450;42.994;23.372;2023-07-31T04:37:08;5.40;;;5.10;;
10795;SDS011;5450;42.994;23.372;2023-07-31T04:39:35;5.27;;;4.87;;
10795;SDS011;5450;42.994;23.372;2023-07-31T04:42:02;5.23;;;4.83;;
10795;SDS011;5450;42.994;23.372;2023-07-31T04:44:30;5.67;;;5.27;;
10795;SDS011;5450;42.994;23.372;2023-07-31T04:46:58;5.83;;;5.33;;
10795;SDS011;5450;42.994;23.372;2023-07-31T04:49:25;5.70;;;5.40;;
10795;SDS011;5450;42.994;23.372;2023-07-31T04:51:52;5.70;;;5.37;;
10795;SDS011;5450;42.994;23.372;2023-07-31T04:54:19;6.00;;;5.40;;
10795;SDS011;5450;42.994;23.372;2023-07-31T04:56:45;5.43;;;5.13;;
10795;SDS011;5450;42.994;23.372;2023-07-31T04:59:13;6.07;;;5.47;;
10795;SDS011;5450;42.994;23.372;2023-07-31T05:01:40;5.83;;;5.43;;
10795;SDS011;5450;42.994;23.372;2023-07-31T05:04:15;5.87;;;5.47;;
10795;SDS011;5450;42.994;23.372;2023-07-31T05:06:43;6.53;;;5.93;;
10795;SDS011;5450;42.994;23.372;2023-07-31T05:09:10;6.03;;;5.70;;
10795;SDS011;5450;42.994;23.372;2023-07-31T05:11:44;6.33;;;5.83;;
10795;SDS011;5450;42.994;23.372;2023-07-31T05:20:14;6.93;;;6.33;;
10795;SDS011;5450;42.994;23.372;2023-07-31T05:22:41;7.57;;;7.07;;
10795;SDS011;5450;42.994;23.372;2023-07-31T05:25:08;8.57;;;7.97;;
10795;SDS011;5450;42.994;23.372;2023-07-31T05:27:35;7.87;;;7.37;;
10795;SDS011;5450;42.994;23.372;2023-07-31T05:30:02;7.87;;;7.27;;
10795;SDS011;5450;42.994;23.372;2023-07-31T05:32:30;7.43;;;6.93;;
10795;SDS011;5450;42.994;23.372;2023-07-31T05:34:57;7.73;;;7.23;;
10795;SDS011;5450;42.994;23.372;2023-07-31T05:37:25;7.67;;;7.17;;
10795;SDS011;5450;42.994;23.372;2023-07-31T05:39:52;8.47;;;7.73;;
10795;SDS011;5450;42.994;23.372;2023-07-31T05:42:20;7.73;;;7.13;;
10795;SDS011;5450;42.994;23.372;2023-07-31T05:44:51;8.43;;;7.83;;
10795;SDS011;5450;42.994;23.372;2023-07-31T05:47:18;10.07;;;9.33;;
10795;SDS011;5450;42.994;23.372;2023-07-31T05:49:45;9.87;;;9.17;;
10795;SDS011;5450;42.994;23.372;2023-07-31T05:52:12;11.23;;;10.33;;
10795;SDS011;5450;42.994;23.372;2023-07-31T05:54:42;10.80;;;9.90;;
10795;SDS011;5450;42.994;23.372;2023-07-31T05:57:12;11.13;;;10.13;;
10795;SDS011;5450;42.994;23.372;2023-07-31T05:59:39;11.27;;;10.17;;
10795;SDS011;5450;42.994;23.372;2023-07-31T06:02:06;11.00;;;10.03;;
10795;SDS011;5450;42.994;23.372;2023-07-31T06:04:33;11.60;;;10.70;;
10795;SDS011;5450;42.994;23.372;2023-07-31T06:07:00;10.83;;;9.90;;
10795;SDS011;5450;42.994;23.372;2023-07-31T06:09:31;10.15;;;9.40;;
10795;SDS011;5450;42.994;23.372;2023-07-31T06:15:24;10.48;;;9.57;;
10795;SDS011;5450;42.994;23.372;2023-07-31T06:17:52;11.00;;;10.20;;
10795;SDS011;5450;42.994;23.372;2023-07-31T06:20:19;11.48;;;10.55;;
10795;SDS011;5450;42.994;23.372;2023-07-31T06:22:45;11.75;;;10.85;;
10795;SDS011;5450;42.994;23.372;2023-07-31T06:25:13;11.68;;;10.77;;
10795;SDS011;5450;42.994;23.372;2023-07-31T06:27:40;10.35;;;9.55;;
10795;SDS011;5450;42.994;23.372;2023-07-31T06:30:07;10.20;;;9.40;;
10795;SDS011;5450;42.994;23.372;2023-07-31T06:32:39;10.63;;;9.83;;
10795;SDS011;5450;42.994;23.372;2023-07-31T06:35:14;10.05;;;9.35;;
10795;SDS011;5450;42.994;23.372;2023-07-31T06:37:43;10.35;;;9.65;;
10795;SDS011;5450;42.994;23.372;2023-07-31T06:40:11;11.00;;;9.50;;
10795;SDS011;5450;42.994;23.372;2023-07-31T06:42:43;9.50;;;8.70;;
10795;SDS011;5450;42.994;23.372;2023-07-31T06:45:14;9.27;;;8.57;;
10795;SDS011;5450;42.994;23.372;2023-07-31T06:47:43;9.02;;;8.35;;
10795;SDS011;5450;42.994;23.372;2023-07-31T06:50:11;8.20;;;7.60;;
10795;SDS011;5450;42.994;23.372;2023-07-31T06:52:44;7.60;;;7.13;;
10795;SDS011;5450;42.994;23.372;2023-07-31T06:55:18;8.18;;;7.57;;
10795;SDS011;5450;42.994;23.372;2023-07-31T06:57:46;7.50;;;7.00;;
10795;SDS011;5450;42.994;23.372;2023-07-31T07:00:13;6.93;;;6.38;;
10795;SDS011;5450;42.994;23.372;2023-07-31T07:02:41;7.97;;;7.38;;
10795;SDS011;5450;42.994;23.372;2023-07-31T07:05:10;7.80;;;7.28;;
10795;SDS011;5450;42.994;23.372;2023-07-31T07:07:38;6.30;;;5.90;;
10795;SDS011;5450;42.994;23.372;2023-07-31T07:19:35;5.85;;;5.45;;
10795;SDS011;5450;42.994;23.372;2023-07-31T07:22:05;6.10;;;5.68;;
10795;SDS011;5450;42.994;23.372;2023-07-31T07:24:32;7.00;;;6.40;;
10795;SDS011;5450;42.994;23.372;2023-07-31T07:36:56;5.75;;;5.25;;
10795;SDS011;5450;42.994;23.372;2023-07-31T07:49:11;6.25;;;5.85;;
10795;SDS011;5450;42.994;23.372;2023-07-31T08:11:41;5.22;;;2.90;;
10795;SDS011;5450;42.994;23.372;2023-07-31T08:17:44;2.72;;;2.63;;
10795;SDS011;5450;42.994;23.372;2023-07-31T08:23:46;1.70;;;1.70;;
10795;SDS011;5450;42.994;23.372;2023-07-31T08:26:14;2.17;;;2.08;;
10795;SDS011;5450;42.994;23.372;2023-07-31T08:52:30;1.38;;;1.30;;
10795;SDS011;5450;42.994;23.372;2023-07-31T08:54:57;1.13;;;1.13;;
10795;SDS011;5450;42.994;23.372;2023-07-31T08:57:25;1.20;;;1.20;;
10795;SDS011;5450;42.994;23.372;2023-07-31T09:03:12;1.52;;;1.38;;
10795;SDS011;5450;42.994;23.372;2023-07-31T09:05:43;2.47;;;1.45;;
10795;SDS011;5450;42.994;23.372;2023-07-31T09:11:33;1.13;;;1.13;;
10795;SDS011;5450;42.994;23.372;2023-07-31T09:16:53;1.50;;;1.50;;
10795;SDS011;5450;42.994;23.372;2023-07-31T09:19:27;1.80;;;1.70;;
10795;SDS011;5450;42.994;23.372;2023-07-31T09:38:24;2.05;;;1.95;;
10795;SDS011;5450;42.994;23.372;2023-07-31T09:44:13;1.92;;;1.83;;
10795;SDS011;5450;42.994;23.372;2023-07-31T09:46:40;2.08;;;1.98;;
10795;SDS011;5450;42.994;23.372;2023-07-31T09:49:08;1.88;;;1.80;;
10795;SDS011;5450;42.994;23.372;2023-07-31T09:51:35;2.13;;;2.00;;
10795;SDS011;5450;42.994;23.372;2023-07-31T09:54:12;5.65;;;1.85;;
10795;SDS011;5450;42.994;23.372;2023-07-31T09:56:41;2.13;;;1.80;;
10795;SDS011;5450;42.994;23.372;2023-07-31T10:10:00;1.65;;;1.55;;
10795;SDS011;5450;42.994;23.372;2023-07-31T10:26:46;1.48;;;1.48;;
10795;SDS011;5450;42.994;23.372;2023-07-31T10:29:16;1.10;;;1.10;;
10795;SDS011;5450;42.994;23.372;2023-07-31T10:32:01;1.65;;;1.60;;
10795;SDS011;5450;42.994;23.372;2023-07-31T10:45:00;1.95;;;1.77;;
10795;SDS011;5450;42.994;23.372;2023-07-31T10:47:38;2.88;;;1.88;;
10795;SDS011;5450;42.994;23.372;2023-07-31T10:53:59;1.80;;;1.70;;
10795;SDS011;5450;42.994;23.372;2023-07-31T10:59:46;2.03;;;1.92;;
10795;SDS011;5450;42.994;23.372;2023-07-31T11:06:03;1.80;;;1.70;;
10795;SDS011;5450;42.994;23.372;2023-07-31T11:08:31;1.70;;;1.70;;
10795;SDS011;5450;42.994;23.372;2023-07-31T11:17:51;1.70;;;1.70;;
10795;SDS011;5450;42.994;23.372;2023-07-31T11:31:22;2.00;;;1.90;;
10795;SDS011;5450;42.994;23.372;2023-07-31T11:34:03;1.58;;;1.52;;
10795;SDS011;5450;42.994;23.372;2023-07-31T11:46:27;2.10;;;2.00;;
10795;SDS011;5450;42.994;23.372;2023-07-31T11:48:59;3.05;;;1.70;;
10795;SDS011;5450;42.994;23.372;2023-07-31T11:51:26;3.25;;;1.80;;
10795;SDS011;5450;42.994;23.372;2023-07-31T12:01:17;2.00;;;1.90;;
10795;SDS011;5450;42.994;23.372;2023-07-31T12:03:48;2.50;;;2.30;;
10795;SDS011;5450;42.994;23.372;2023-07-31T12:24:18;1.92;;;1.80;;
10795;SDS011;5450;42.994;23.372;2023-07-31T12:33:19;1.52;;;1.52;;
10795;SDS011;5450;42.994;23.372;2023-07-31T12:39:29;1.45;;;1.35;;
10795;SDS011;5450;42.994;23.372;2023-07-31T12:45:38;1.38;;;1.38;;
10795;SDS011;5450;42.994;23.372;2023-07-31T12:48:05;1.63;;;1.63;;
10795;SDS011;5450;42.994;23.372;2023-07-31T12:56:45;1.35;;;1.35;;
10795;SDS011;5450;42.994;23.372;2023-07-31T12:59:13;2.15;;;1.55;;
10795;SDS011;5450;42.994;23.372;2023-07-31T13:05:21;1.40;;;1.40;;
10795;SDS011;5450;42.994;23.372;2023-07-31T13:07:49;1.40;;;1.40;;
10795;SDS011;5450;42.994;23.372;2023-07-31T13:10:18;1.38;;;1.38;;
10795;SDS011;5450;42.994;23.372;2023-07-31T13:12:50;1.38;;;1.38;;
10795;SDS011;5450;42.994;23.372;2023-07-31T13:15:17;1.83;;;1.73;;
10795;SDS011;5450;42.994;23.372;2023-07-31T13:17:45;1.65;;;1.55;;
10795;SDS011;5450;42.994;23.372;2023-07-31T13:20:15;1.27;;;1.27;;
10795;SDS011;5450;42.994;23.372;2023-07-31T13:22:42;1.92;;;1.83;;
10795;SDS011;5450;42.994;23.372;2023-07-31T13:28:51;1.50;;;1.50;;
10795;SDS011;5450;42.994;23.372;2023-07-31T13:35:00;3.55;;;1.90;;
10795;SDS011;5450;42.994;23.372;2023-07-31T13:44:51;2.10;;;2.00;;
10795;SDS011;5450;42.994;23.372;2023-07-31T13:54:19;2.22;;;2.13;;
10795;SDS011;5450;42.994;23.372;2023-07-31T14:03:02;2.33;;;2.22;;
10795;SDS011;5450;42.994;23.372;2023-07-31T14:18:12;2.60;;;2.50;;
10795;SDS011;5450;42.994;23.372;2023-07-31T14:23:55;3.13;;;3.03;;
10795;SDS011;5450;42.994;23.372;2023-07-31T14:26:23;3.08;;;2.88;;
10795;SDS011;5450;42.994;23.372;2023-07-31T14:28:50;2.50;;;2.40;;
10795;SDS011;5450;42.994;23.372;2023-07-31T14:38:16;2.78;;;2.63;;
10795;SDS011;5450;42.994;23.372;2023-07-31T14:40:43;3.05;;;2.95;;
10795;SDS011;5450;42.994;23.372;2023-07-31T14:46:30;3.15;;;3.05;;
10795;SDS011;5450;42.994;23.372;2023-07-31T14:48:59;3.08;;;2.90;;
10795;SDS011;5450;42.994;23.372;2023-07-31T15:01:48;2.63;;;2.53;;
10795;SDS011;5450;42.994;23.372;2023-07-31T15:04:18;2.53;;;2.42;;
10795;SDS011;5450;42.994;23.372;2023-07-31T15:06:48;2.38;;;2.28;;
10795;SDS011;5450;42.994;23.372;2023-07-31T15:16:38;2.47;;;2.38;;
10795;SDS011;5450;42.994;23.372;2023-07-31T15:33:03;2.22;;;2.13;;
10795;SDS011;5450;42.994;23.372;2023-07-31T15:42:52;5.15;;;2.58;;
10795;SDS011;5450;42.994;23.372;2023-07-31T15:45:20;2.15;;;2.05;;
10795;SDS011;5450;42.994;23.372;2023-07-31T15:51:29;2.30;;;2.20;;
10795;SDS011;5450;42.994;23.372;2023-07-31T15:57:14;2.72;;;2.55;;
10795;SDS011;5450;42.994;23.372;2023-07-31T16:02:38;2.20;;;2.10;;
10795;SDS011;5450;42.994;23.372;2023-07-31T16:05:06;2.60;;;2.50;;
10795;SDS011;5450;42.994;23.372;2023-07-31T16:07:40;3.25;;;2.55;;
10795;SDS011;5450;42.994;23.372;2023-07-31T16:10:08;5.55;;;2.45;;
10795;SDS011;5450;42.994;23.372;2023-07-31T16:16:16;2.50;;;2.40;;
10795;SDS011;5450;42.994;23.372;2023-07-31T16:18:50;2.72;;;2.60;;
10795;SDS011;5450;42.994;23.372;2023-07-31T16:28:35;2.38;;;2.28;;
10795;SDS011;5450;42.994;23.372;2023-07-31T16:37:41;2.90;;;2.80;;
10795;SDS011;5450;42.994;23.372;2023-07-31T16:40:12;2.70;;;2.60;;
10795;SDS011;5450;42.994;23.372;2023-07-31T16:53:30;2.90;;;2.80;;
10795;SDS011;5450;42.994;23.372;2023-07-31T16:59:39;2.70;;;2.60;;
10795;SDS011;5450;42.994;23.372;2023-07-31T17:09:30;3.28;;;3.08;;
10795;SDS011;5450;42.994;23.372;2023-07-31T17:11:59;4.32;;;3.70;;
10795;SDS011;5450;42.994;23.372;2023-07-31T17:14:32;3.78;;;3.58;;
10795;SDS011;5450;42.994;23.372;2023-07-31T17:17:06;3.28;;;2.97;;
10795;SDS011;5450;42.994;23.372;2023-07-31T17:19:33;3.53;;;3.38;;
10795;SDS011;5450;42.994;23.372;2023-07-31T17:22:04;4.10;;;3.90;;
10795;SDS011;5450;42.994;23.372;2023-07-31T17:24:37;3.63;;;3.40;;
10795;SDS011;5450;42.994;23.372;2023-07-31T17:37:19;3.53;;;3.22;;
10795;SDS011;5450;42.994;23.372;2023-07-31T17:39:48;3.88;;;3.67;;
10795;SDS011;5450;42.994;23.372;2023-07-31T17:42:19;3.20;;;3.00;;
10795;SDS011;5450;42.994;23.372;2023-07-31T17:44:48;3.35;;;3.03;;
10795;SDS011;5450;42.994;23.372;2023-07-31T17:50:57;2.83;;;2.65;;
10795;SDS011;5450;42.994;23.372;2023-07-31T17:57:07;5.30;;;3.20;;
10795;SDS011;5450;42.994;23.372;2023-07-31T17:59:35;2.97;;;2.88;;
10795;SDS011;5450;42.994;23.372;2023-07-31T18:02:03;3.20;;;3.10;;
10795;SDS011;5450;42.994;23.372;2023-07-31T18:08:10;4.17;;;3.87;;
10795;SDS011;5450;42.994;23.372;2023-07-31T18:14:19;3.58;;;3.47;;
10795;SDS011;5450;42.994;23.372;2023-07-31T18:23:31;4.10;;;3.80;;
10795;SDS011;5450;42.994;23.372;2023-07-31T18:29:23;3.27;;;3.17;;
10795;SDS011;5450;42.994;23.372;2023-07-31T18:31:52;4.57;;;3.87;;
10795;SDS011;5450;42.994;23.372;2023-07-31T18:34:23;3.43;;;3.23;;
10795;SDS011;5450;42.994;23.372;2023-07-31T18:36:53;4.07;;;3.10;;
10795;SDS011;5450;42.994;23.372;2023-07-31T18:45:08;3.30;;;3.20;;
10795;SDS011;5450;42.994;23.372;2023-07-31T18:50:28;3.53;;;3.33;;
10795;SDS011;5450;42.994;23.372;2023-07-31T18:56:37;3.50;;;3.30;;
10795;SDS011;5450;42.994;23.372;2023-07-31T19:02:24;3.60;;;3.30;;
10795;SDS011;5450;42.994;23.372;2023-07-31T19:04:55;3.73;;;3.53;;
10795;SDS011;5450;42.994;23.372;2023-07-31T19:10:17;4.00;;;3.70;;
10795;SDS011;5450;42.994;23.372;2023-07-31T19:16:29;3.57;;;3.37;;
10795;SDS011;5450;42.994;23.372;2023-07-31T19:19:02;3.57;;;3.27;;
10795;SDS011;5450;42.994;23.372;2023-07-31T19:21:34;3.50;;;3.20;;
10795;SDS011;5450;42.994;23.372;2023-07-31T19:24:01;4.40;;;4.10;;
10795;SDS011;5450;42.994;23.372;2023-07-31T19:26:30;3.80;;;3.37;;
10795;SDS011;5450;42.994;23.372;2023-07-31T19:29:02;3.67;;;3.47;;
10795;SDS011;5450;42.994;23.372;2023-07-31T19:31:32;3.53;;;3.33;;
10795;SDS011;5450;42.994;23.372;2023-07-31T19:34:04;3.43;;;3.13;;
10795;SDS011;5450;42.994;23.372;2023-07-31T19:36:32;3.07;;;2.97;;
10795;SDS011;5450;42.994;23.372;2023-07-31T19:41:57;3.70;;;3.50;;
10795;SDS011;5450;42.994;23.372;2023-07-31T19:44:28;3.40;;;3.20;;
10795;SDS011;5450;42.994;23.372;2023-07-31T19:46:58;3.73;;;3.43;;
10795;SDS011;5450;42.994;23.372;2023-07-31T19:49:29;3.40;;;3.20;;
10795;SDS011;5450;42.994;23.372;2023-07-31T19:55:38;3.57;;;3.37;;
10795;SDS011;5450;42.994;23.372;2023-07-31T19:58:09;3.67;;;3.47;;
10795;SDS011;5450;42.994;23.372;2023-07-31T20:04:20;3.63;;;3.43;;
10795;SDS011;5450;42.994;23.372;2023-07-31T20:06:52;3.00;;;2.90;;
10795;SDS011;5450;42.994;23.372;2023-07-31T20:22:34;3.13;;;2.93;;
10795;SDS011;5450;42.994;23.372;2023-07-31T20:28:02;2.90;;;2.80;;
10795;SDS011;5450;42.994;23.372;2023-07-31T20:37:29;3.40;;;3.10;;
10795;SDS011;5450;42.994;23.372;2023-07-31T20:43:38;3.50;;;3.30;;
10795;SDS011;5450;42.994;23.372;2023-07-31T20:56:45;3.43;;;3.20;;
10795;SDS011;5450;42.994;23.372;2023-07-31T21:02:58;3.17;;;2.97;;
10795;SDS011;5450;42.994;23.372;2023-07-31T21:08:48;3.03;;;2.93;;
10795;SDS011;5450;42.994;23.372;2023-07-31T21:11:16;3.63;;;3.33;;
10795;SDS011;5450;42.994;23.372;2023-07-31T21:13:46;3.37;;;3.10;;
10795;SDS011;5450;42.994;23.372;2023-07-31T21:20:00;3.23;;;3.03;;
10795;SDS011;5450;42.994;23.372;2023-07-31T21:22:29;3.20;;;3.00;;
10795;SDS011;5450;42.994;23.372;2023-07-31T21:38:06;3.00;;;2.90;;
10795;SDS011;5450;42.994;23.372;2023-07-31T21:57:53;3.67;;;3.37;;
10795;SDS011;5450;42.994;23.372;2023-07-31T22:06:55;3.10;;;2.90;;
10795;SDS011;5450;42.994;23.372;2023-07-31T22:12:41;2.87;;;2.77;;
10795;SDS011;5450;42.994;23.372;2023-07-31T22:27:58;3.47;;;3.27;;
10795;SDS011;5450;42.994;23.372;2023-07-31T22:30:25;3.30;;;3.20;;
10795;SDS011;5450;42.994;23.372;2023-07-31T22:36:11;3.20;;;3.10;;
10795;SDS011;5450;42.994;23.372;2023-07-31T22:38:38;3.40;;;3.20;;
10795;SDS011;5450;42.994;23.372;2023-07-31T22:41:09;3.47;;;3.30;;
10795;SDS011;5450;42.994;23.372;2023-07-31T22:53:48;3.20;;;3.00;;
10795;SDS011;5450;42.994;23.372;2023-07-31T23:02:32;3.13;;;2.97;;
10795;SDS011;5450;42.994;23.372;2023-07-31T23:04:59;3.40;;;3.20;;
10795;SDS011;5450;42.994;23.372;2023-07-31T23:07:26;3.50;;;3.30;;
10795;SDS011;5450;42.994;23.372;2023-07-31T23:09:54;3.37;;;3.20;;
10795;SDS011;5450;42.994;23.372;2023-07-31T23:12:21;3.23;;;3.13;;
10795;SDS011;5450;42.994;23.372;2023-07-31T23:14:48;3.40;;;3.20;;
10795;SDS011;5450;42.994;23.372;2023-07-31T23:17:15;3.67;;;3.47;;
10795;SDS011;5450;42.994;23.372;2023-07-31T23:23:11;3.53;;;3.33;;
10795;SDS011;5450;42.994;23.372;2023-07-31T23:25:40;3.37;;;3.27;;
10795;SDS011;5450;42.994;23.372;2023-07-31T23:28:07;3.50;;;3.30;;
10795;SDS011;5450;42.994;23.372;2023-07-31T23:30:34;3.03;;;2.87;;
10795;SDS011;5450;42.994;23.372;2023-07-31T23:33:01;3.17;;;3.07;;
10795;SDS011;5450;42.994;23.372;2023-07-31T23:35:29;2.90;;;2.80;;
10795;SDS011;5450;42.994;23.372;2023-07-31T23:41:35;3.00;;;2.90;;
10795;SDS011;5450;42.994;23.372;2023-07-31T23:44:02;3.47;;;3.37;;
10795;SDS011;5450;42.994;23.372;2023-07-31T23:46:29;3.67;;;3.30;;
10795;SDS011;5450;42.994;23.372;2023-07-31T23:48:56;3.43;;;3.23;;
10795;SDS011;5450;42.994;23.372;2023-07-31T23:51:24;3.30;;;3.10;;
10795;SDS011;5450;42.994;23.372;2023-07-31T23:53:51;3.77;;;3.47;;
10795;SDS011;5450;42.994;23.372;2023-07-31T23:56:21;3.57;;;3.37;;
10795;SDS011;5450;42.994;23.372;2023-07-31T23:58:49;3.63;;;3.33;;
